• Join FlightAware (Why Join?)
  • Login
  • US Flag 
06:44PM EDT


 

Airport Tracker/Info


-or-


 

Live Flight TrackerFlight Track Log ✈ EJA583 ✈ 09-Jul-2013 ✈ KMBS - KHOU

Flight Track Log - Related Links

Times and Time Zones

All times are in EDT time to prevent confusion due to time zone crossing. See the EJA583 flight status page for this flight to view local times or setup timezone preferences in your user account.

Time Position Orientation Groundspeed Altitude Reporting Facility
EDT Latitude Longitude Course Direction KTS MPH feet Rate Location/Type
08:00AM 43.4408 -84.1572 210° Southwest 263 303 5,500  Level Cleveland Center
08:01AM 43.3725 -84.2106 210° Southwest 285 328 8,300 2,220 Climbing Cleveland Center
08:02AM 43.3017 -84.2692 211° Southwest 416 479 10,000 1,500 Climbing Cleveland Center
08:03AM 43.2611 -84.3608 239° Southwest 372 428 11,400 1,800 Climbing Cleveland Center
08:04AM 43.2083 -84.4517 231° Southwest 336 387 13,600 2,100 Climbing Cleveland Center
08:05AM 42.9511 -84.5088 210° Southwest  Level FlightAware Approximate
08:05AM 43.1214 -84.4917 199° South 314 361 15,600  Level Cleveland Center
08:06AM 43.0322 -84.5372 200° South 325 374 17,200 1,500 Climbing Cleveland Center
08:07AM 42.9411 -84.5825 200° South 344 396 18,600 1,500 Climbing Cleveland Center
08:08AM 42.8456 -84.6331 201° Southwest 358 412 20,200 1,500 Climbing Cleveland Center
08:09AM 42.7500 -84.6806 200° South 358 412 21,600 1,200 Climbing Cleveland Center
08:10AM 42.6658 -84.7569 214° Southwest 358 412 22,600 1,020 Climbing Cleveland Center
08:11AM 42.5631 -84.8875 223° Southwest 373 429 24,100 1,020 Climbing Chicago Center
08:12AM 42.4844 -84.9842 222° Southwest 379 436 25,100 900 Climbing Chicago Center
08:13AM 42.4064 -85.0828 223° Southwest 382 440 26,000 420 Climbing Chicago Center
08:14AM 42.3233 -85.1825 222° Southwest 395 455 26,000 480 Level Chicago Center
08:15AM 42.2214 -85.3061 222° Southwest 409 471 27,000 960 Climbing Chicago Center
08:16AM 42.1381 -85.4086 222° Southwest 406 467 28,000 960 Climbing Chicago Center
08:17AM 42.0561 -85.5069 222° Southwest 397 457 29,100 960 Climbing Chicago Center
08:18AM 41.9839 -85.5961 223° Southwest 394 453 30,000 1,020 Climbing Chicago Center
08:19AM 41.8878 -85.7117 222° Southwest 390 449 31,200 1,020 Climbing Chicago Center
08:20AM 41.8075 -85.8067 221° Southwest 390 449 32,200 960 Climbing Chicago Center
08:21AM 41.7261 -85.9031 221° Southwest 393 452 33,200 960 Climbing Chicago Center
08:22AM 41.6453 -85.9997 222° Southwest 394 453 34,200 960 Climbing Chicago Center
08:23AM 41.5639 -86.0956 221° Southwest 393 452 35,200 1,020 Climbing Chicago Center
08:24AM 41.4650 -86.2114 221° Southwest 395 455 36,400 1,020 Climbing Chicago Center
08:26AM 41.3836 -86.3078 222° Southwest 393 452 37,400 960 Climbing Chicago Center
08:27AM 41.3000 -86.4031 221° Southwest 395 455 38,400 960 Climbing Chicago Center
08:28AM 41.2183 -86.5003 222° Southwest 395 455 39,400 720 Climbing Chicago Center
08:29AM 41.1369 -86.5961 222° Southwest 393 452 40,000 240 Climbing Chicago Center
08:30AM 41.0317 -86.7164 221° Southwest 415 478 40,000  Level Chicago Center
08:31AM 40.9506 -86.8111 221° Southwest 426 490 40,000  Level Chicago Center
08:32AM 40.8592 -86.9156 221° Southwest 434 499 40,000  Level Chicago Center
08:33AM 40.7503 -87.0389 221° Southwest 431 496 40,000  Level Chicago Center
08:34AM 40.6611 -87.1431 222° Southwest 430 495 40,000  Level Chicago Center
08:35AM 40.5708 -87.2456 221° Southwest 429 494 40,000  Level Chicago Center
08:36AM 40.4794 -87.3492 221° Southwest 432 497 40,000  Level Chicago Center
08:37AM 40.3894 -87.4508 221° Southwest 433 498 40,000  Level Chicago Center
08:38AM 40.2986 -87.5517 220° Southwest 428 493 40,000  Level Chicago Center
08:39AM 40.1711 -87.6417 208° Southwest 439 505 40,000  Level Chicago Center
08:40AM 40.0631 -87.7178 208° Southwest 444 511 40,000  Level Chicago Center
08:41AM 39.9950 -87.7633 207° Southwest 443 510 40,000  Level Indianapolis Center
08:42AM 39.8878 -87.8372 208° Southwest 440 506 40,000  Level Indianapolis Center
08:43AM 39.7808 -87.9100 208° Southwest 438 504 40,000  Level Indianapolis Center
08:44AM 39.6728 -87.9844 208° Southwest 440 506 40,000  Level Indianapolis Center
08:45AM 39.5661 -88.0567 208° Southwest 437 503 40,000  Level Indianapolis Center
08:46AM 39.4600 -88.1292 208° Southwest 438 504 40,000  Level Kansas City Center
08:47AM 39.3511 -88.2028 208° Southwest 438 504 40,000  Level Kansas City Center
08:48AM 39.2231 -88.2892 208° Southwest 435 501 40,000  Level Indianapolis Center
08:49AM 39.1142 -88.3625 208° Southwest 437 503 40,000  Level Kansas City Center
08:50AM 39.0056 -88.4347 207° Southwest 437 503 40,000  Level Kansas City Center
08:51AM 38.8981 -88.5075 208° Southwest 437 503 40,000  Level Kansas City Center
08:52AM 38.7889 -88.5792 207° Southwest 438 504 40,000  Level Kansas City Center
08:53AM 38.6772 -88.6531 207° Southwest 438 504 40,000  Level Kansas City Center
08:54AM 38.5542 -88.7336 207° Southwest 442 509 40,000  Level Kansas City Center
08:55AM 38.4433 -88.8058 207° Southwest 447 514 40,000  Level Kansas City Center
08:56AM 38.3456 -88.8700 207° Southwest 445 512 40,000  Level Kansas City Center
08:57AM 38.2358 -88.9414 207° Southwest 442 509 40,000  Level Kansas City Center
08:58AM 38.1272 -89.0119 207° Southwest 441 507 40,000  Level Kansas City Center
08:59AM 37.9964 -89.0986 208° Southwest 446 513 40,000  Level Kansas City Center
09:00AM 37.8819 -89.1725 207° Southwest 435 501 40,000  Level Kansas City Center
09:01AM 37.7908 -89.2292 206° Southwest 424 488 40,000  Level Kansas City Center
09:02AM 37.6617 -89.3108 207° Southwest 428 493 40,000  Level Kansas City Center
09:03AM 37.5536 -89.3800 207° Southwest 434 499 40,000 -60 Level Kansas City Center
09:04AM 37.4467 -89.4489 207° Southwest 434 499 39,900  Descending Kansas City Center
09:05AM 37.3397 -89.5172 207° Southwest 432 497 40,000  Climbing Kansas City Center
09:06AM 37.2322 -89.5869 207° Southwest 437 503 40,000  Level Kansas City Center
09:07AM 37.1247 -89.6572 208° Southwest 437 503 40,000  Level Kansas City Center
09:08AM 37.0344 -89.7150 207° Southwest 431 496 40,000  Level Memphis Center
09:09AM 36.9264 -89.7858 208° Southwest 431 496 40,000  Level Memphis Center
09:10AM 36.8183 -89.8542 207° Southwest 431 496 40,000  Level Memphis Center
09:11AM 36.7103 -89.9222 207° Southwest 431 496 40,000  Level Memphis Center
09:12AM 36.6000 -89.9872 205° Southwest 431 496 40,000  Level Memphis Center
09:13AM 36.4917 -90.0550 207° Southwest 431 496 40,000  Level Memphis Center
09:14AM 36.3939 -90.1147 206° Southwest 436 502 40,000  Level Memphis Center
09:15AM 36.2856 -90.1819 207° Southwest 436 502 40,000  Level Memphis Center
09:16AM 36.1772 -90.2464 206° Southwest 431 496 40,000  Level Memphis Center
09:17AM 36.0711 -90.3108 206° Southwest 431 496 40,000  Level Memphis Center
09:18AM 35.9625 -90.3750 206° Southwest 431 496 40,000  Level Memphis Center
09:19AM 35.8542 -90.4364 205° Southwest 431 496 40,000  Level Memphis Center
09:20AM 35.7497 -90.5028 207° Southwest 431 496 40,000  Level Memphis Center
09:21AM 35.6414 -90.5742 208° Southwest 421 484 40,000  Level Memphis Center
09:22AM 35.5328 -90.6403 206° Southwest 421 484 40,000  Level Memphis Center
09:23AM 35.4261 -90.7011 205° Southwest 424 488 40,000  Level Memphis Center
09:24AM 35.3175 -90.7667 206° Southwest 424 488 40,000  Level Memphis Center
09:25AM 35.2131 -90.8322 207° Southwest 429 494 40,000  Level Memphis Center
09:26AM 35.1042 -90.8953 205° Southwest 429 494 40,000  Level Memphis Center
09:27AM 34.9975 -90.9606 207° Southwest 429 494 40,000  Level Memphis Center
09:28AM 34.8908 -91.0231 206° Southwest 429 494 40,000  Level Memphis Center
09:29AM 34.7842 -91.0853 206° Southwest 429 494 40,000  Level Memphis Center
09:30AM 34.6753 -91.1475 205° Southwest 429 494 40,000  Level Memphis Center
09:31AM 34.5683 -91.2097 206° Southwest 429 494 40,000  Level Memphis Center
09:32AM 34.4700 -91.2667 206° Southwest 431 496 40,000  Level Memphis Center
09:33AM 34.3653 -91.3283 206° Southwest 431 496 40,000  Level Memphis Center
09:34AM 34.2561 -91.3900 205° Southwest 425 489 40,000  Level Memphis Center
09:35AM 34.1511 -91.4539 207° Southwest 430 495 40,000  Level Memphis Center
09:36AM 34.0400 -91.5178 205° Southwest 430 495 40,000  Level Memphis Center
09:37AM 33.9308 -91.5789 205° Southwest 430 495 40,000  Level Memphis Center
09:39AM 33.7056 -91.7086 206° Southwest 405 466 40,000  Level Fort Worth Center
09:40AM 33.5939 -91.7733 206° Southwest 423 487 40,000  Level Fort Worth Center
09:41AM 33.4881 -91.8322 205° Southwest 430 495 40,000  Level Fort Worth Center
09:42AM 33.3781 -91.8964 206° Southwest 435 501 40,000  Level Fort Worth Center
09:43AM 33.2661 -91.9581 205° Southwest 435 501 40,000  Level Fort Worth Center
09:44AM 33.1519 -92.0197 204° Southwest 441 507 40,000  Level Fort Worth Center
09:45AM 33.0439 -92.0831 206° Southwest 436 502 40,000  Level Fort Worth Center
09:46AM 32.9339 -92.1442 205° Southwest 441 507 40,000  Level Fort Worth Center
09:47AM 32.8217 -92.2075 205° Southwest 436 502 40,000  Level Fort Worth Center
09:49AM 32.6517 -92.3014 205° Southwest 438 504 40,000  Level Houston Center
09:50AM 32.5400 -92.3656 206° Southwest 443 510 40,000  Level Houston Center
09:51AM 32.4292 -92.4269 205° Southwest 444 511 40,000  Level Houston Center
09:52AM 32.3181 -92.4858 204° Southwest 440 506 40,000  Level Houston Center
09:53AM 32.2072 -92.5494 206° Southwest 440 506 40,000  Level Houston Center
09:54AM 32.0725 -92.6178 203° Southwest 440 506 40,000  Level Houston Center
09:55AM 31.9633 -92.6844 207° Southwest 443 510 40,000  Level Houston Center
09:56AM 31.8819 -92.7956 229° Southwest 445 512 40,000  Level Houston Center
09:57AM 31.7972 -92.9028 227° Southwest 448 516 40,000  Level Houston Center
09:58AM 31.7131 -93.0100 227° Southwest 448 516 40,000  Level Houston Center
09:59AM 31.6283 -93.1167 227° Southwest 450 518 40,000  Level Houston Center
10:00AM 31.5269 -93.2431 227° Southwest 446 513 40,000  Level Houston Center
10:01AM 31.4461 -93.3464 227° Southwest 447 514 40,000  Level Houston Center
10:02AM 31.3611 -93.4528 227° Southwest 450 518 40,000  Level Houston Center
10:03AM 31.2767 -93.5581 227° Southwest 446 513 40,000  Level Houston Center
10:04AM 31.1889 -93.6681 227° Southwest 450 518 40,000  Level Houston Center
10:05AM 31.0869 -93.7942 227° Southwest 448 516 40,000 -720 Level Houston Center
10:06AM 31.0028 -93.8983 227° Southwest 445 512 38,600 -2,160 Descending Houston Center
10:07AM 30.9181 -94.0014 226° Southwest 444 511 35,600 -2,940 Descending Houston Center
10:08AM 30.8342 -94.1053 227° Southwest 444 511 32,500 -3,120 Descending Houston Center
10:09AM 30.7369 -94.2231 226° Southwest 448 516 29,100 -3,300 Descending Houston Center
10:10AM 30.6425 -94.3369 226° Southwest 458 527 25,700 -3,240 Descending Houston Center
10:11AM 30.5561 -94.4428 227° Southwest 454 522 22,500 -2,880 Descending Houston Center
10:12AM 30.4808 -94.5383 228° Southwest 423 487 19,800 -2,760 Descending Houston Center
10:13AM 30.4114 -94.6497 234° Southwest 394 453 16,800 -2,700 Descending Houston Center
10:14AM 30.3511 -94.7422 233° Southwest 365 420 14,300 -1,920 Descending Houston Center
10:15AM 30.2939 -94.8306 233° Southwest 346 398 12,900 -1,200 Descending Houston Center
10:17AM 30.2369 -94.9186 233° Southwest 344 396 11,800 -1,380 Descending Houston Center
10:18AM 30.1694 -95.0203 232° Southwest 337 388 10,100 -960 Descending Houston Center
10:19AM 30.1022 -95.0847 220° Southwest 320 368 9,900 -840 Descending Houston Center
10:20AM 30.0278 -95.1172 201° Southwest 290 334 8,500 -960 Descending Houston Center
10:21AM 29.9539 -95.1489 200° South 283 326 8,000 -360 Descending Houston Center
10:22AM 29.8817 -95.1794 200° South 279 321 7,800 -960 Descending Houston Center
10:23AM 29.8092 -95.2108 201° Southwest 237 273 6,100 -900 Descending Houston Center
10:24AM 29.7506 -95.2364 201° Southwest 229 264 6,000 -60 Descending Houston Center
10:25AM 29.6928 -95.2619 201° Southwest 226 260 6,000 -180 Level Houston Center
10:26AM 29.6483 -95.3064 221° Southwest 226 260 5,700 -840 Descending Houston Center
10:27AM 29.6339 -95.3756 257° West 224 258 4,300 -1,320 Descending Houston Center
10:28AM 29.6872 -95.4411 313° West 234 269 3,000 -780 Descending Houston Center
10:29AM 29.7411 -95.4078 28° Northeast 234 269 2,800 -600 Descending Houston Center
10:30AM 29.7142 -95.3589 122° Southeast 216 249 1,800 -960 Descending Houston Center
10:31AM 29.6711 -95.3111 136° Southeast 146 168 800 -780 Descending Houston Center
10:32AM 29.6533 -95.2878 131° Southeast 163 188 200 -720 Descending Houston Center